createdAt,value
2022-12-12T00:00:35.761Z,5.43
2022-12-12T00:03:04.726Z,5.40
2022-12-12T00:05:31.760Z,5.49
2022-12-12T00:07:58.824Z,5.50
2022-12-12T00:10:25.726Z,5.48
2022-12-12T00:12:52.607Z,5.39
2022-12-12T00:15:19.548Z,5.50
2022-12-12T00:17:46.410Z,5.51
2022-12-12T00:20:13.307Z,5.56
2022-12-12T00:22:40.312Z,5.58
2022-12-12T00:25:08.372Z,5.57
2022-12-12T00:27:35.281Z,5.55
2022-12-12T00:30:02.192Z,5.54
2022-12-12T00:32:30.231Z,5.52
2022-12-12T00:34:57.155Z,5.52
2022-12-12T00:37:24.142Z,5.51
2022-12-12T00:39:51.195Z,5.47
2022-12-12T00:42:18.080Z,5.52
2022-12-12T00:44:44.941Z,5.51
2022-12-12T00:47:11.833Z,5.49
2022-12-12T00:49:38.698Z,5.49
2022-12-12T00:52:05.632Z,5.49
2022-12-12T00:54:32.587Z,5.51
2022-12-12T00:56:59.476Z,5.51
2022-12-12T00:59:26.399Z,5.49
2022-12-12T01:01:53.338Z,5.56
2022-12-12T01:04:20.278Z,5.57
2022-12-12T01:06:47.232Z,5.57
2022-12-12T01:09:14.416Z,5.61
2022-12-12T01:11:41.370Z,5.62
2022-12-12T01:14:08.349Z,5.61
2022-12-12T01:16:35.433Z,5.61
2022-12-12T01:19:02.379Z,5.66
2022-12-12T01:21:29.343Z,5.66
2022-12-12T01:23:56.268Z,5.67
2022-12-12T01:26:24.780Z,5.61
2022-12-12T01:28:52.440Z,5.63
2022-12-12T01:31:20.171Z,5.65
2022-12-12T01:33:47.355Z,5.64
2022-12-12T01:36:16.995Z,5.58
2022-12-12T01:38:45.981Z,5.65
2022-12-12T01:41:14.394Z,5.63
2022-12-12T01:43:41.276Z,5.60
2022-12-12T01:46:33.346Z,5.59
2022-12-12T01:49:24.370Z,5.55
2022-12-12T01:51:57.383Z,5.54
2022-12-12T01:54:30.277Z,5.55
2022-12-12T01:57:01.470Z,5.58
2022-12-12T01:59:28.735Z,5.58
2022-12-12T02:01:56.893Z,5.58
2022-12-12T02:04:24.942Z,5.55
2022-12-12T02:06:53.071Z,5.54
2022-12-12T02:09:21.090Z,5.53
2022-12-12T02:11:54.684Z,5.51
2022-12-12T02:14:30.597Z,5.52
2022-12-12T02:17:32.298Z,5.52
2022-12-12T02:20:24.332Z,5.50
2022-12-12T02:23:30.912Z,5.46
2022-12-12T02:26:50.102Z,5.41
2022-12-12T02:29:46.765Z,5.37
2022-12-12T02:32:51.415Z,5.36
2022-12-12T02:35:55.218Z,5.35
2022-12-12T02:38:39.974Z,5.33
2022-12-12T02:41:29.998Z,5.32
2022-12-12T02:44:30.856Z,5.29
2022-12-12T02:47:24.402Z,5.26
2022-12-12T02:50:02.844Z,5.21
2022-12-12T02:52:30.237Z,5.20
2022-12-12T02:54:57.312Z,5.19
2022-12-12T02:57:26.724Z,5.20
2022-12-12T03:00:02.129Z,5.21
2022-12-12T03:03:40.943Z,5.20
2022-12-12T03:06:41.306Z,5.19
2022-12-12T03:09:49.479Z,5.14
2022-12-12T03:12:35.009Z,5.10
2022-12-12T03:15:12.169Z,5.06
2022-12-12T03:18:00.149Z,5.05
2022-12-12T03:20:43.102Z,5.03
2022-12-12T03:23:19.321Z,5.02
2022-12-12T03:26:06.073Z,5.00
2022-12-12T03:28:45.560Z,5.02
2022-12-12T03:31:14.958Z,5.02
2022-12-12T03:33:57.086Z,5.01
2022-12-12T03:36:30.288Z,4.99
2022-12-12T03:39:06.140Z,5.02
2022-12-12T03:41:39.567Z,5.02
2022-12-12T03:44:17.979Z,4.99
2022-12-12T03:46:54.451Z,4.96
2022-12-12T03:49:34.635Z,4.97
2022-12-12T03:52:11.434Z,5.00
2022-12-12T03:54:49.244Z,5.00
2022-12-12T03:57:22.866Z,4.98
2022-12-12T04:00:01.315Z,5.01
2022-12-12T04:02:51.953Z,5.00
2022-12-12T04:06:01.865Z,5.00
2022-12-12T04:08:29.117Z,4.91
2022-12-12T04:11:26.046Z,4.97
2022-12-12T04:14:16.555Z,4.93
2022-12-12T04:16:46.823Z,4.85
2022-12-12T04:19:44.376Z,4.89
2022-12-12T04:22:38.870Z,4.81
2022-12-12T04:26:03.921Z,4.81
2022-12-12T04:28:34.028Z,4.77
2022-12-12T04:31:05.135Z,4.82
2022-12-12T04:33:45.926Z,4.76
2022-12-12T04:36:15.360Z,4.70
2022-12-12T04:38:45.358Z,4.63
2022-12-12T04:41:14.909Z,4.53
2022-12-12T04:43:43.558Z,4.46
2022-12-12T04:46:15.413Z,4.37
2022-12-12T04:48:54.750Z,4.33
2022-12-12T04:51:31.511Z,4.36
2022-12-12T04:54:08.879Z,4.39
2022-12-12T04:56:38.877Z,4.39
2022-12-12T04:59:07.621Z,4.42
2022-12-12T05:01:52.654Z,4.40
2022-12-12T05:04:28.856Z,4.39
2022-12-12T05:07:10.200Z,4.25
2022-12-12T05:09:37.684Z,4.19
2022-12-12T05:12:05.000Z,4.19
2022-12-12T05:14:32.194Z,4.18
2022-12-12T05:17:11.071Z,4.12
2022-12-12T05:19:37.980Z,4.00
2022-12-12T05:22:04.847Z,3.97
2022-12-12T05:24:31.997Z,3.87
2022-12-12T05:27:00.322Z,3.93
2022-12-12T05:29:27.198Z,3.96
2022-12-12T05:31:54.112Z,3.97
2022-12-12T05:34:20.995Z,3.90
2022-12-12T05:36:47.948Z,3.97
2022-12-12T05:39:15.011Z,3.96
2022-12-12T05:41:42.245Z,3.95
2022-12-12T05:44:09.171Z,3.92
2022-12-12T05:46:36.095Z,3.89
2022-12-12T05:49:03.147Z,3.88
2022-12-12T05:51:30.076Z,3.86
2022-12-12T05:53:56.992Z,3.74
2022-12-12T05:56:23.971Z,3.84
2022-12-12T05:58:50.858Z,3.83
2022-12-12T06:01:17.721Z,3.81
2022-12-12T06:03:44.677Z,3.80
2022-12-12T06:06:11.590Z,3.63
2022-12-12T06:08:38.494Z,3.77
2022-12-12T06:11:07.592Z,3.74
2022-12-12T06:13:34.851Z,3.73
2022-12-12T06:16:07.861Z,3.69
2022-12-12T06:18:34.816Z,3.65
2022-12-12T06:21:10.371Z,3.54
2022-12-12T06:23:39.731Z,3.56
2022-12-12T06:26:08.990Z,3.51
2022-12-12T06:28:37.555Z,3.45
2022-12-12T06:31:11.341Z,3.41
2022-12-12T06:33:40.106Z,3.37
2022-12-12T06:36:11.571Z,3.33
2022-12-12T06:38:39.371Z,3.23
2022-12-12T06:41:08.911Z,3.25
2022-12-12T06:43:36.016Z,3.20
2022-12-12T06:46:06.354Z,3.19
2022-12-12T06:48:34.363Z,3.17
2022-12-12T06:51:07.061Z,3.14
2022-12-12T06:53:34.087Z,3.10
2022-12-12T06:56:05.746Z,3.00
2022-12-12T06:58:32.600Z,2.96
2022-12-12T07:00:59.450Z,2.98
2022-12-12T07:03:26.321Z,2.95
2022-12-12T07:05:53.211Z,2.90
2022-12-12T07:08:20.272Z,2.87
2022-12-12T07:10:47.355Z,2.85
2022-12-12T07:13:14.373Z,2.78
2022-12-12T07:15:47.705Z,2.82
2022-12-12T07:18:16.128Z,2.80
2022-12-12T07:20:45.920Z,2.76
2022-12-12T07:23:14.005Z,2.73
2022-12-12T07:25:44.687Z,2.68
2022-12-12T07:28:13.571Z,2.53
2022-12-12T07:30:46.986Z,2.59
2022-12-12T07:33:16.680Z,2.61
2022-12-12T07:35:44.280Z,2.64
2022-12-12T07:38:11.779Z,2.61
2022-12-12T07:40:38.742Z,2.57
2022-12-12T07:43:05.710Z,2.53
2022-12-12T07:45:32.590Z,2.48
2022-12-12T07:47:59.603Z,2.33
2022-12-12T07:50:26.482Z,2.34
2022-12-12T07:52:53.359Z,2.31
2022-12-12T07:55:20.237Z,2.33
2022-12-12T07:57:47.110Z,2.35
2022-12-12T08:00:15.815Z,2.38
2022-12-12T08:02:42.673Z,2.40
2022-12-12T08:05:09.774Z,2.44
2022-12-12T08:07:36.720Z,2.45
2022-12-12T08:10:04.762Z,2.48
2022-12-12T08:12:33.326Z,2.49
2022-12-12T08:15:00.231Z,2.46
2022-12-12T08:17:27.319Z,2.54
2022-12-12T08:19:54.211Z,2.57
2022-12-12T08:22:21.172Z,2.58
2022-12-12T08:24:50.040Z,2.60
2022-12-12T08:27:17.014Z,2.63
2022-12-12T08:29:44.156Z,2.66
2022-12-12T08:32:11.041Z,2.68
2022-12-12T08:34:37.994Z,2.70
2022-12-12T08:37:05.223Z,2.74
2022-12-12T08:39:32.186Z,2.78
2022-12-12T08:41:59.071Z,2.74
2022-12-12T08:44:26.081Z,2.77
2022-12-12T08:46:53.074Z,2.84
2022-12-12T08:49:20.038Z,2.84
2022-12-12T08:51:46.901Z,2.86
2022-12-12T08:54:14.115Z,2.86
2022-12-12T08:56:41.054Z,2.92
2022-12-12T08:59:07.968Z,2.94
2022-12-12T09:01:35.049Z,2.94
2022-12-12T09:04:02.226Z,2.98
2022-12-12T09:06:29.144Z,3.00
2022-12-12T09:08:57.514Z,3.03
2022-12-12T09:11:25.149Z,3.05
2022-12-12T09:13:52.591Z,3.13
2022-12-12T09:16:20.392Z,3.19
2022-12-12T09:18:49.349Z,3.21
2022-12-12T09:21:17.231Z,3.25
2022-12-12T09:23:44.353Z,3.28
2022-12-12T09:26:11.597Z,3.30
2022-12-12T09:28:39.027Z,3.31
2022-12-12T09:31:08.066Z,3.29
2022-12-12T09:33:35.718Z,3.30
2022-12-12T09:36:06.970Z,3.32
2022-12-12T09:38:34.779Z,3.33
2022-12-12T09:41:12.907Z,3.33
2022-12-12T09:44:06.111Z,3.37
2022-12-12T09:46:38.720Z,3.36
2022-12-12T09:49:43.033Z,3.37
2022-12-12T09:52:30.632Z,3.38
2022-12-12T09:55:18.627Z,3.36
2022-12-12T09:58:04.992Z,3.38
2022-12-12T10:00:38.996Z,3.33
2022-12-12T10:03:17.221Z,3.38
2022-12-12T10:06:36.061Z,3.37
2022-12-12T10:09:32.524Z,3.36
2022-12-12T10:12:07.904Z,3.34
2022-12-12T10:14:51.184Z,3.30
2022-12-12T10:17:30.176Z,3.27
2022-12-12T10:20:24.537Z,3.16
2022-12-12T10:23:04.371Z,3.15
2022-12-12T10:25:52.453Z,3.10
2022-12-12T10:28:23.514Z,3.08
2022-12-12T10:31:12.676Z,3.01
2022-12-12T10:34:04.201Z,3.10
2022-12-12T10:37:18.741Z,3.01
2022-12-12T10:40:41.089Z,3.15
2022-12-12T10:43:33.940Z,3.15
2022-12-12T10:46:53.349Z,3.15
2022-12-12T10:49:23.355Z,3.13
2022-12-12T10:51:51.926Z,3.04
2022-12-12T10:54:24.185Z,3.15
2022-12-12T10:57:19.824Z,3.17
2022-12-12T10:59:53.256Z,3.17
2022-12-12T11:02:34.966Z,3.17
2022-12-12T11:05:22.621Z,3.12
2022-12-12T11:08:06.730Z,3.15
2022-12-12T11:10:36.792Z,3.16
2022-12-12T11:13:09.758Z,3.16
2022-12-12T11:16:13.892Z,3.17
2022-12-12T11:18:41.075Z,3.20
2022-12-12T11:21:14.407Z,3.22
2022-12-12T11:23:52.673Z,3.23
2022-12-12T11:26:21.766Z,3.24
2022-12-12T11:28:56.572Z,3.27
2022-12-12T11:31:26.561Z,3.29
2022-12-12T11:34:00.903Z,3.31
2022-12-12T11:36:34.666Z,3.39
2022-12-12T11:39:14.537Z,3.44
2022-12-12T11:41:57.530Z,3.55
2022-12-12T11:44:25.842Z,3.56
2022-12-12T11:46:52.935Z,3.63
2022-12-12T11:49:20.351Z,3.64
2022-12-12T11:51:48.106Z,3.65
2022-12-12T11:54:22.195Z,3.67
2022-12-12T11:57:06.881Z,3.76
2022-12-12T11:59:55.139Z,3.78
2022-12-12T12:02:51.424Z,3.72
2022-12-12T12:05:52.234Z,3.75
2022-12-12T12:08:41.972Z,3.75
2022-12-12T12:11:21.123Z,3.76
2022-12-12T12:13:58.018Z,3.78
2022-12-12T12:16:48.606Z,3.80
2022-12-12T12:19:40.436Z,3.83
2022-12-12T12:22:41.637Z,3.83
2022-12-12T12:25:35.691Z,3.86
2022-12-12T12:29:06.752Z,3.89
2022-12-12T12:32:02.799Z,3.95
2022-12-12T12:35:06.895Z,3.99
2022-12-12T12:38:26.608Z,4.04
2022-12-12T12:41:47.376Z,4.07
2022-12-12T12:44:35.067Z,4.09
2022-12-12T12:47:23.567Z,4.07
2022-12-12T12:50:13.623Z,3.97
2022-12-12T12:52:51.620Z,4.02
2022-12-12T12:55:24.012Z,3.98
2022-12-12T12:57:52.297Z,3.97
2022-12-12T13:00:24.288Z,3.95
2022-12-12T13:03:10.540Z,3.87
2022-12-12T13:05:57.956Z,3.80
2022-12-12T13:08:46.800Z,3.82
2022-12-12T13:11:37.194Z,3.72
2022-12-12T13:14:44.705Z,3.75
2022-12-12T13:17:21.975Z,3.76
2022-12-12T13:19:53.630Z,3.79
2022-12-12T13:22:49.990Z,3.80
2022-12-12T13:25:36.255Z,3.85
2022-12-12T13:28:12.328Z,3.82
2022-12-12T13:31:37.989Z,3.88
2022-12-12T13:34:15.490Z,3.84
2022-12-12T13:36:47.782Z,3.83
2022-12-12T13:39:35.171Z,3.89
2022-12-12T13:42:08.420Z,3.90
2022-12-12T13:44:49.579Z,3.88
2022-12-12T13:47:22.764Z,3.92
2022-12-12T13:50:08.435Z,3.92
2022-12-12T13:52:42.332Z,3.93
2022-12-12T13:55:12.726Z,3.95
2022-12-12T13:58:05.748Z,3.93
2022-12-12T14:00:40.081Z,3.93
2022-12-12T14:03:25.244Z,3.92
2022-12-12T14:05:54.326Z,3.93
2022-12-12T14:08:28.604Z,3.94
2022-12-12T14:11:03.045Z,3.93
2022-12-12T14:13:42.829Z,3.93
2022-12-12T14:16:16.854Z,3.91
2022-12-12T14:18:49.529Z,3.92
2022-12-12T14:21:19.477Z,3.92
2022-12-12T14:23:52.601Z,3.93
2022-12-12T14:26:45.454Z,3.91
2022-12-12T14:29:18.085Z,3.89
2022-12-12T14:31:56.184Z,3.89
2022-12-12T14:34:59.363Z,3.88
2022-12-12T14:38:22.585Z,3.87
2022-12-12T14:41:01.340Z,3.86
2022-12-12T14:43:36.056Z,3.86
2022-12-12T14:46:04.411Z,3.87
2022-12-12T14:48:33.075Z,3.87
2022-12-12T14:51:29.161Z,3.87
2022-12-12T14:53:59.242Z,3.88
2022-12-12T14:56:40.944Z,3.88
2022-12-12T14:59:28.700Z,3.88
2022-12-12T15:02:05.943Z,3.84
2022-12-12T15:04:38.712Z,3.89
2022-12-12T15:07:31.513Z,3.89
2022-12-12T15:09:58.757Z,3.91
2022-12-12T15:12:33.236Z,3.94
2022-12-12T15:15:00.378Z,3.95
2022-12-12T15:17:43.412Z,3.95
2022-12-12T15:20:26.384Z,3.92
2022-12-12T15:23:03.164Z,3.94
2022-12-12T15:25:45.213Z,3.93
2022-12-12T15:28:16.954Z,3.93
2022-12-12T15:30:45.513Z,3.93
2022-12-12T15:33:23.626Z,3.90
2022-12-12T15:36:01.756Z,3.88
2022-12-12T15:38:29.715Z,3.87
2022-12-12T15:40:59.561Z,3.86
2022-12-12T15:43:29.915Z,3.85
2022-12-12T15:46:13.900Z,3.83
2022-12-12T15:48:48.940Z,3.82
2022-12-12T15:51:24.318Z,3.79
2022-12-12T15:53:53.317Z,3.78
2022-12-12T15:56:20.083Z,3.77
2022-12-12T15:58:53.675Z,3.75
2022-12-12T16:01:26.395Z,3.70
2022-12-12T16:04:24.319Z,3.67
2022-12-12T16:06:51.713Z,3.68
2022-12-12T16:09:26.600Z,3.56
2022-12-12T16:11:58.223Z,3.60
2022-12-12T16:14:32.574Z,3.57
2022-12-12T16:17:24.902Z,3.54
2022-12-12T16:19:56.359Z,3.53
2022-12-12T16:22:55.981Z,3.48
2022-12-12T16:25:34.239Z,3.46
2022-12-12T16:28:10.371Z,3.43
2022-12-12T16:30:42.114Z,3.41
2022-12-12T16:33:32.623Z,3.39
2022-12-12T16:36:03.494Z,3.36
2022-12-12T16:38:31.153Z,3.33
2022-12-12T16:41:04.225Z,3.31
2022-12-12T16:43:31.197Z,3.28
2022-12-12T16:45:58.514Z,3.23
2022-12-12T16:48:32.485Z,3.19
2022-12-12T16:51:04.903Z,3.17
2022-12-12T16:53:32.573Z,3.13
2022-12-12T16:56:01.589Z,3.05
2022-12-12T16:58:28.690Z,3.06
2022-12-12T17:00:55.897Z,2.98
2022-12-12T17:03:23.776Z,2.93
2022-12-12T17:05:51.776Z,2.87
2022-12-12T17:08:19.884Z,2.81
2022-12-12T17:10:48.807Z,2.72
2022-12-12T17:13:19.875Z,2.65
2022-12-12T17:15:47.017Z,2.64
2022-12-12T17:18:13.984Z,2.58
2022-12-12T17:20:41.504Z,2.55
2022-12-12T17:23:27.510Z,2.50
2022-12-12T17:26:00.692Z,2.36
2022-12-12T17:28:29.743Z,2.40
2022-12-12T17:30:56.649Z,2.36
2022-12-12T17:33:23.524Z,2.31
2022-12-12T17:36:07.071Z,2.27
2022-12-12T17:38:34.542Z,2.24
2022-12-12T17:41:08.956Z,2.28
2022-12-12T17:43:37.193Z,2.28
2022-12-12T17:46:14.152Z,2.32
2022-12-12T17:48:47.192Z,2.34
2022-12-12T17:51:23.817Z,2.37
2022-12-12T17:53:52.584Z,2.40
2022-12-12T17:56:23.194Z,2.44
2022-12-12T17:58:50.813Z,2.51
2022-12-12T18:01:28.779Z,2.52
2022-12-12T18:03:56.456Z,2.64
2022-12-12T18:06:25.325Z,2.70
2022-12-12T18:08:53.455Z,2.74
2022-12-12T18:11:24.736Z,2.76
2022-12-12T18:13:53.852Z,2.86
2022-12-12T18:16:21.604Z,2.89
2022-12-12T18:18:51.305Z,2.93
2022-12-12T18:21:51.813Z,2.96
2022-12-12T18:24:10.934Z,2.99
2022-12-12T18:26:37.927Z,2.95
2022-12-12T18:29:07.347Z,3.05
2022-12-12T18:31:35.168Z,2.98
2022-12-12T18:34:02.559Z,3.05
2022-12-12T18:36:31.271Z,3.10
2022-12-12T18:39:01.025Z,3.13
2022-12-12T18:41:28.835Z,3.14
2022-12-12T18:43:56.151Z,3.15
2022-12-12T18:46:26.457Z,3.19
2022-12-12T18:48:53.376Z,3.21
2022-12-12T18:51:28.469Z,3.23
2022-12-12T18:54:02.161Z,3.24
2022-12-12T18:56:31.700Z,3.24
2022-12-12T18:59:01.035Z,3.25
2022-12-12T19:01:32.277Z,3.28
2022-12-12T19:04:04.623Z,3.27
2022-12-12T19:06:37.320Z,3.28
2022-12-12T19:09:05.630Z,3.30
2022-12-12T19:11:33.648Z,3.30
2022-12-12T19:14:00.555Z,3.31
2022-12-12T19:16:27.655Z,3.32
2022-12-12T19:18:54.603Z,3.33
2022-12-12T19:21:24.495Z,3.30
2022-12-12T19:23:52.119Z,3.36
2022-12-12T19:26:26.917Z,3.37
2022-12-12T19:29:05.281Z,3.38
2022-12-12T19:31:36.104Z,3.39
2022-12-12T19:34:05.367Z,3.35
2022-12-12T19:36:32.943Z,3.39
2022-12-12T19:39:04.809Z,3.39
2022-12-12T19:41:31.781Z,3.40
2022-12-12T19:44:01.659Z,3.40
2022-12-12T19:46:31.578Z,3.41
2022-12-12T19:49:05.582Z,3.42
2022-12-12T19:51:35.824Z,3.43
2022-12-12T19:54:10.738Z,3.44
2022-12-12T19:56:40.917Z,3.47
2022-12-12T19:59:10.366Z,3.47
2022-12-12T20:01:37.650Z,3.49
2022-12-12T20:04:18.374Z,3.51
2022-12-12T20:06:46.876Z,3.49
2022-12-12T20:09:18.479Z,3.53
2022-12-12T20:11:45.858Z,3.50
2022-12-12T20:14:16.870Z,3.55
2022-12-12T20:16:44.498Z,3.56
2022-12-12T20:19:12.324Z,3.53
2022-12-12T20:24:28.779Z,3.59
2022-12-12T20:26:55.993Z,3.56
2022-12-12T20:29:23.347Z,3.63
2022-12-12T20:31:50.303Z,3.64
2022-12-12T20:34:21.712Z,3.66
2022-12-12T20:36:50.158Z,3.68
2022-12-12T20:39:20.880Z,3.70
2022-12-12T20:41:49.671Z,3.68
2022-12-12T20:44:16.595Z,3.70
2022-12-12T20:46:46.400Z,3.71
2022-12-12T20:49:19.744Z,3.66
2022-12-12T20:51:56.557Z,3.69
2022-12-12T20:54:25.960Z,3.69
2022-12-12T20:56:55.928Z,3.68
2022-12-12T20:59:24.011Z,3.70
2022-12-12T21:01:51.597Z,3.68
2022-12-12T21:04:18.715Z,3.69
2022-12-12T21:06:50.961Z,3.70
2022-12-12T21:09:23.873Z,3.69
2022-12-12T21:11:57.664Z,3.66
2022-12-12T21:14:26.595Z,3.70
2022-12-12T21:16:53.963Z,3.72
2022-12-12T21:19:21.077Z,3.73
2022-12-12T21:21:47.965Z,3.75
2022-12-12T21:24:17.390Z,3.75
2022-12-12T21:26:45.286Z,3.73
2022-12-12T21:29:12.723Z,3.73
2022-12-12T21:31:50.356Z,3.72
2022-12-12T21:34:21.037Z,3.63
2022-12-12T21:36:51.823Z,3.70
2022-12-12T21:39:19.095Z,3.63
2022-12-12T21:41:46.027Z,3.65
2022-12-12T21:44:12.932Z,3.60
2022-12-12T21:46:42.028Z,3.59
2022-12-12T21:49:28.021Z,3.58
2022-12-12T21:52:01.143Z,3.53
2022-12-12T21:54:29.421Z,3.53
2022-12-12T21:56:58.469Z,3.46
2022-12-12T21:59:25.957Z,3.51
2022-12-12T22:01:58.549Z,3.49
2022-12-12T22:04:26.011Z,3.49
2022-12-12T22:06:53.000Z,3.48
2022-12-12T22:09:20.446Z,3.47
2022-12-12T22:11:50.595Z,3.48
2022-12-12T22:14:20.586Z,3.47
2022-12-12T22:16:47.643Z,3.47
2022-12-12T22:19:16.789Z,3.46
2022-12-12T22:21:46.960Z,3.45
2022-12-12T22:24:15.481Z,3.36
2022-12-12T22:26:46.138Z,3.35
2022-12-12T22:29:17.110Z,3.27
2022-12-12T22:31:45.117Z,3.21
2022-12-12T22:34:19.643Z,3.14
2022-12-12T22:36:47.502Z,3.08
2022-12-12T22:39:21.678Z,3.02
2022-12-12T22:41:50.027Z,2.96
2022-12-12T22:44:18.972Z,2.91
2022-12-12T22:46:47.429Z,2.85
2022-12-12T22:49:19.224Z,2.79
2022-12-12T22:51:47.101Z,2.74
2022-12-12T22:54:14.210Z,2.69
2022-12-12T22:56:41.878Z,2.66
2022-12-12T22:59:11.917Z,2.62
2022-12-12T23:01:39.511Z,2.62
2022-12-12T23:04:07.083Z,2.62
2022-12-12T23:06:36.602Z,2.63
2022-12-12T23:09:17.300Z,2.63
2022-12-12T23:11:45.454Z,2.63
2022-12-12T23:14:16.572Z,2.62
2022-12-12T23:16:44.503Z,2.68
2022-12-12T23:19:14.453Z,2.71
2022-12-12T23:21:41.350Z,2.73
2022-12-12T23:24:08.320Z,2.69
2022-12-12T23:26:36.686Z,2.80
2022-12-12T23:29:08.050Z,2.84
2022-12-12T23:31:37.361Z,2.86
2022-12-12T23:34:17.848Z,2.88
2022-12-12T23:36:44.791Z,2.90
2022-12-12T23:39:13.268Z,2.92
2022-12-12T23:41:40.709Z,2.86
2022-12-12T23:44:08.752Z,2.94
2022-12-12T23:46:36.356Z,2.96
2022-12-12T23:49:20.543Z,2.97
2022-12-12T23:51:57.105Z,3.00
2022-12-12T23:54:32.127Z,3.02
2022-12-12T23:56:59.916Z,3.05
2022-12-12T23:59:27.391Z,3.06
